.
WxDataArchive / Data Records for 2009-12-22
2009-12-21 December 2009 2009-12-23

Data Records for Tuesday, 22 December 2009

Time	Temp	Chill	HIndex	Humid	Dewpt	 Wind 	HiWind	WindDir	Rain 	Barom 
-----	----	-----	------	-----	-----	------	------	-------	-----	----- 
00:00	27.9	27.9	27.9	85	24.0	0	1	248	0.00	30.224 
00:05	27.9	27.9	27.9	85	24.0	0	0	---	0.00	30.224 
00:10	27.9	27.9	27.9	85	24.0	0	0	---	0.00	30.224 
00:15	27.9	27.9	27.9	85	24.0	0	0	---	0.00	30.229 
00:20	27.9	27.9	27.9	85	24.0	0	1	248	0.00	30.229 
00:25	27.9	27.9	27.9	86	24.3	0	1	248	0.00	30.229 
00:30	27.9	27.9	27.9	86	24.3	0	1	248	0.00	30.228 
00:35	28.1	28.1	28.1	86	24.5	0	2	248	0.00	30.228 
00:40	28.1	28.1	28.1	86	24.5	0	0	---	0.00	30.228 
00:45	28.1	28.1	28.1	86	24.5	0	1	248	0.00	30.222 
00:50	28.1	28.1	28.1	86	24.5	0	1	248	0.00	30.222 
00:55	28.1	28.1	28.1	87	24.7	0	2	248	0.00	30.222 
01:00	28.1	28.1	28.1	87	24.7	0	1	248	0.00	30.218 
01:05	27.9	27.9	27.9	87	24.5	0	1	248	0.00	30.218 
01:10	27.9	27.9	27.9	87	24.5	0	1	248	0.00	30.218 
01:15	27.9	27.9	27.9	87	24.5	0	1	248	0.00	30.214 
01:20	27.9	27.9	27.9	87	24.5	0	2	248	0.00	30.214 
01:25	27.9	27.9	27.9	87	24.5	0	2	248	0.00	30.214 
01:30	27.9	27.9	27.9	87	24.5	0	2	248	0.00	30.211 
01:35	27.9	27.9	27.9	88	24.8	0	2	248	0.00	30.211 
01:40	27.9	27.9	27.9	88	24.8	0	2	248	0.00	30.211 
01:45	27.9	27.9	27.9	88	24.8	0	1	248	0.00	30.210 
01:50	27.9	27.9	27.9	88	24.8	0	1	248	0.00	30.210 
01:55	27.9	27.9	27.9	88	24.8	0	2	248	0.00	30.210 
02:00	27.9	27.9	27.9	88	24.8	0	3	248	0.00	30.212 
02:05	27.9	27.9	27.9	88	24.8	0	2	248	0.00	30.212 
02:10	27.9	27.9	27.9	88	24.8	0	1	248	0.00	30.212 
02:15	27.9	27.9	27.9	88	24.8	0	3	270	0.00	30.220 
02:20	27.9	27.9	27.9	88	24.8	0	2	270	0.00	30.220 
02:25	28.1	28.1	28.1	88	25.0	0	1	270	0.00	30.220 
02:30	28.1	28.1	28.1	88	25.0	0	1	270	0.00	30.232 
02:35	28.1	28.1	28.1	88	25.0	0	3	270	0.00	30.232 
02:40	28.1	28.1	28.1	88	25.0	0	2	270	0.00	30.232 
02:45	28.1	28.1	28.1	88	25.0	0	1	270	0.00	30.237 
02:50	28.1	28.1	28.1	88	25.0	0	2	270	0.00	30.237 
02:55	28.1	28.1	28.1	88	25.0	0	1	270	0.00	30.237 
03:00	28.1	28.1	28.1	88	25.0	0	3	270	0.00	30.241 
03:05	28.2	28.2	28.2	88	25.1	0	2	270	0.00	30.241 
03:10	28.1	28.1	28.1	88	25.0	0	1	270	0.00	30.241 
03:15	28.1	28.1	28.1	88	25.0	0	1	270	0.00	30.242 
03:20	28.1	28.1	28.1	88	25.0	0	1	270	0.00	30.242 
03:25	28.1	28.1	28.1	89	25.3	0	2	270	0.00	30.242 
03:30	28.1	28.1	28.1	89	25.3	0	1	270	0.00	30.246 
03:35	28.1	28.1	28.1	89	25.3	0	1	270	0.00	30.246 
03:40	28.2	28.2	28.2	89	25.4	0	1	270	0.00	30.246 
03:45	28.1	28.1	28.1	89	25.3	0	0	---	0.00	30.246 
03:50	28.1	28.1	28.1	89	25.3	0	0	---	0.00	30.246 
03:55	28.1	28.1	28.1	89	25.3	0	1	270	0.00	30.246 
04:00	28.2	28.2	28.2	90	25.7	0	1	270	0.00	30.248 
04:05	28.1	28.1	28.1	90	25.6	0	0	---	0.00	30.248 
04:10	28.1	28.1	28.1	90	25.6	0	0	---	0.00	30.248 
04:15	28.1	28.1	28.1	90	25.6	0	0	---	0.00	30.250 
04:20	28.1	28.1	28.1	90	25.6	0	0	---	0.00	30.250 
04:25	28.1	28.1	28.1	90	25.6	0	0	---	0.00	30.250 
04:30	28.1	28.1	28.1	90	25.6	0	0	---	0.00	30.250 
04:35	28.1	28.1	28.1	90	25.6	0	0	---	0.00	30.250 
04:40	27.9	27.9	27.9	90	25.4	0	1	270	0.00	30.250 
04:45	27.9	27.9	27.9	91	25.6	0	1	270	0.00	30.250 
04:50	27.9	27.9	27.9	91	25.6	0	0	---	0.00	30.250 
04:55	27.9	27.9	27.9	91	25.6	0	1	270	0.00	30.250 
05:00	27.9	27.9	27.9	91	25.6	0	0	---	0.00	30.248 
05:05	27.9	27.9	27.9	91	25.6	0	0	---	0.00	30.248 
05:10	27.9	27.9	27.9	91	25.6	0	0	---	0.00	30.248 
05:15	27.9	27.9	27.9	91	25.6	0	0	---	0.00	30.247 
05:20	27.8	27.8	27.8	91	25.5	0	0	---	0.00	30.247 
05:25	27.8	27.8	27.8	91	25.5	0	0	---	0.00	30.247 
05:30	27.8	27.8	27.8	91	25.5	0	0	---	0.00	30.249 
05:35	27.8	27.8	27.8	91	25.5	0	1	270	0.00	30.249 
05:40	27.8	27.8	27.8	91	25.5	0	0	---	0.00	30.249 
05:45	27.8	27.8	27.8	91	25.5	0	0	---	0.00	30.250 
05:50	27.8	27.8	27.8	91	25.5	0	0	---	0.00	30.250 
05:55	27.8	27.8	27.8	91	25.5	0	0	---	0.00	30.250 
06:00	27.8	27.8	27.8	91	25.5	0	0	---	0.00	30.251 
06:05	27.8	27.8	27.8	91	25.5	0	0	---	0.00	30.251 
06:10	27.8	27.8	27.8	91	25.5	0	0	---	0.00	30.251 
06:15	27.8	27.8	27.8	92	25.8	0	0	---	0.00	30.249 
06:20	27.8	27.8	27.8	92	25.8	0	0	---	0.00	30.249 
06:25	27.8	27.8	27.8	92	25.8	0	0	---	0.00	30.249 
06:30	27.8	27.8	27.8	92	25.8	0	0	---	0.00	30.249 
06:35	27.6	27.6	27.6	92	25.6	0	0	---	0.00	30.249 
06:40	27.6	27.6	27.6	92	25.6	0	0	---	0.00	30.249 
06:45	27.6	27.6	27.6	92	25.6	0	0	---	0.00	30.252 
06:50	27.6	27.6	27.6	92	25.6	0	0	---	0.00	30.252 
06:55	27.6	27.6	27.6	92	25.6	0	0	---	0.00	30.252 
07:00	27.6	27.6	27.6	92	25.6	0	0	---	0.00	30.255 
07:05	27.6	27.6	27.6	92	25.6	0	0	---	0.00	30.255 
07:10	27.6	27.6	27.6	92	25.6	0	0	---	0.00	30.255 
07:15	27.6	27.6	27.6	92	25.6	0	0	---	0.00	30.261 
07:20	27.6	27.6	27.6	92	25.6	0	0	---	0.00	30.261 
07:25	27.6	27.6	27.6	92	25.6	0	0	---	0.00	30.261 
07:30	27.6	27.6	27.6	92	25.6	0	0	---	0.00	30.265 
07:35	27.6	27.6	27.6	92	25.6	0	0	---	0.00	30.265 
07:40	27.6	27.6	27.6	92	25.6	0	0	---	0.00	30.265 
07:45	27.6	27.6	27.6	92	25.6	0	0	---	0.00	30.265 
07:50	27.6	27.6	27.6	92	25.6	0	0	---	0.00	30.265 
07:55	27.6	27.6	27.6	92	25.6	0	0	---	0.00	30.265 
08:00	27.8	27.8	27.8	92	25.8	0	0	---	0.00	30.268 
08:05	27.8	27.8	27.8	92	25.8	0	0	---	0.00	30.268 
08:10	27.9	27.9	27.9	92	25.9	0	0	---	0.00	30.268 
08:15	27.9	27.9	27.9	92	25.9	0	0	---	0.00	30.271 
08:20	27.9	27.9	27.9	92	25.9	0	0	---	0.00	30.271 
08:25	27.9	27.9	27.9	92	25.9	0	0	---	0.00	30.271 
08:30	27.9	27.9	27.9	92	25.9	0	0	---	0.00	30.274 
08:35	27.9	27.9	27.9	92	25.9	0	0	---	0.00	30.274 
08:40	27.9	27.9	27.9	93	26.1	0	0	---	0.00	30.274 
08:45	28.1	28.1	28.1	93	26.3	0	0	---	0.00	30.279 
08:50	28.1	28.1	28.1	93	26.3	0	0	---	0.00	30.279 
08:55	28.1	28.1	28.1	93	26.3	0	0	---	0.00	30.279 
09:00	28.2	28.2	28.2	93	26.4	0	0	---	0.00	30.283 
09:05	28.2	28.2	28.2	93	26.4	0	0	---	0.00	30.283 
09:10	28.2	28.2	28.2	93	26.4	0	1	270	0.00	30.283 
09:15	28.1	28.1	28.1	92	26.1	0	1	270	0.00	30.283 
09:20	28.1	28.1	28.1	92	26.1	0	0	---	0.00	30.283 
09:25	28.1	28.1	28.1	93	26.3	0	1	270	0.00	30.283 
09:30	28.1	28.1	28.1	93	26.3	0	1	270	0.00	30.287 
09:35	28.2	28.2	28.2	92	26.2	0	1	270	0.00	30.287 
09:40	28.2	28.2	28.2	93	26.4	0	0	---	0.00	30.287 
09:45	28.5	28.5	28.5	93	26.7	0	0	---	0.00	30.296 
09:50	28.7	28.7	28.7	93	26.9	0	1	270	0.00	30.296 
09:55	28.8	28.8	28.8	92	26.8	0	1	270	0.00	30.296 
10:00	29.0	29.0	29.0	92	27.0	0	2	270	0.00	30.294 
10:05	29.0	29.0	29.0	92	27.0	0	2	270	0.00	30.294 
10:10	29.0	29.0	29.0	92	27.0	0	2	270	0.00	30.294 
10:15	29.1	29.1	29.1	92	27.1	0	2	270	0.00	30.303 
10:20	29.0	29.0	29.0	91	26.7	1	3	112	0.00	30.303 
10:25	29.0	29.0	29.0	91	26.7	1	3	112	0.00	30.303 
10:30	28.8	28.8	28.8	91	26.5	1	3	112	0.00	30.303 
10:35	29.0	29.0	29.0	91	26.7	1	2	112	0.00	30.303 
10:40	29.0	29.0	29.0	91	26.7	0	2	112	0.00	30.303 
10:45	29.1	29.1	29.1	91	26.8	1	2	112	0.00	30.307 
10:50	29.1	29.1	29.1	90	26.5	1	3	112	0.00	30.307 
10:55	29.1	29.1	29.1	90	26.5	1	3	112	0.00	30.307 
11:00	29.3	29.3	29.3	90	26.7	1	4	68	0.00	30.303 
11:05	29.4	29.4	29.4	90	26.8	1	4	68	0.00	30.303 
11:10	29.4	29.4	29.4	90	26.8	1	4	112	0.00	30.303 
11:15	29.5	29.5	29.5	89	26.7	2	5	112	0.00	30.300 
11:20	29.5	29.5	29.5	89	26.7	2	5	112	0.00	30.300 
11:25	29.7	29.7	29.7	89	26.9	2	5	112	0.00	30.300 
11:30	29.5	29.5	29.5	88	26.4	2	5	90	0.00	30.296 
11:35	29.5	29.5	29.5	88	26.4	2	5	90	0.00	30.296 
11:40	29.5	29.5	29.5	88	26.4	1	4	90	0.00	30.296 
11:45	29.5	29.5	29.5	88	26.4	2	9	112	0.00	30.290 
11:50	29.8	29.8	29.8	88	26.7	2	5	90	0.00	30.290 
11:55	30.0	30.0	30.0	88	26.9	2	5	90	0.00	30.290 
12:00	30.0	30.0	30.0	88	26.9	3	6	112	0.00	30.285 
12:05	30.0	30.0	30.0	88	26.9	3	5	112	0.00	30.285 
12:10	30.1	30.1	30.1	87	26.7	3	7	68	0.00	30.285 
12:15	30.3	30.3	30.3	87	26.9	1	5	90	0.00	30.284 
12:20	30.4	30.4	30.4	87	27.0	2	4	112	0.00	30.284 
12:25	30.4	30.4	30.4	87	27.0	2	4	112	0.00	30.284 
12:30	30.4	30.4	30.4	87	27.0	2	5	90	0.00	30.282 
12:35	30.6	30.6	30.6	87	27.2	1	5	90	0.00	30.282 
12:40	30.6	30.6	30.6	87	27.2	2	4	90	0.00	30.282 
12:45	30.4	30.4	30.4	87	27.0	2	7	90	0.00	30.267 
12:50	30.4	30.4	30.4	87	27.0	3	7	112	0.00	30.267 
12:55	30.4	30.4	30.4	87	27.0	2	5	112	0.00	30.267 
13:00	30.4	30.4	30.4	87	27.0	2	5	112	0.00	30.266 
13:05	30.4	30.4	30.4	87	27.0	2	6	90	0.00	30.266 
13:10	30.4	30.4	30.4	87	27.0	1	7	90	0.00	30.266 
13:15	30.3	30.3	30.3	87	26.9	2	4	90	0.00	30.271 
13:20	30.4	30.4	30.4	88	27.3	2	4	112	0.00	30.271 
13:25	30.4	30.4	30.4	88	27.3	2	5	112	0.00	30.271 
13:30	30.4	30.4	30.4	87	27.0	2	4	90	0.00	30.274 
13:35	30.4	30.4	30.4	86	26.7	3	5	112	0.00	30.274 
13:40	30.3	30.3	30.3	86	26.6	3	5	112	0.00	30.274 
13:45	30.3	30.3	30.3	85	26.3	3	7	112	0.00	30.268 
13:50	30.4	30.4	30.4	85	26.4	2	5	112	0.00	30.268 
13:55	30.4	30.4	30.4	85	26.4	3	7	112	0.00	30.268 
14:00	30.6	30.6	30.6	85	26.6	2	7	90	0.00	30.265 
14:05	30.7	30.7	30.7	86	27.0	2	5	90	0.00	30.265 
14:10	30.9	30.9	30.9	86	27.2	2	6	90	0.00	30.265 
14:15	30.7	30.7	30.7	86	27.0	3	7	112	0.00	30.259 
14:20	30.7	30.7	30.7	86	27.0	1	4	112	0.00	30.259 
14:25	30.7	30.7	30.7	87	27.3	2	5	112	0.00	30.259 
14:30	30.7	30.7	30.7	87	27.3	2	5	112	0.00	30.259 
14:35	30.6	30.6	30.6	87	27.2	3	5	90	0.00	30.259 
14:40	30.6	30.6	30.6	87	27.2	3	6	112	0.00	30.259 
14:45	30.6	30.6	30.6	87	27.2	2	6	112	0.00	30.258 
14:50	30.7	30.7	30.7	87	27.3	2	5	90	0.00	30.258 
14:55	30.7	30.7	30.7	87	27.3	3	7	90	0.00	30.258 
15:00	30.6	26.5	30.6	85	26.6	4	9	112	0.00	30.263 
15:05	30.6	30.6	30.6	85	26.6	3	7	90	0.00	30.263 
15:10	30.6	30.6	30.6	85	26.6	3	6	112	0.00	30.263 
15:15	30.6	30.6	30.6	85	26.6	2	5	90	0.00	30.270 
15:20	30.6	30.6	30.6	84	26.4	3	9	90	0.00	30.270 
15:25	30.4	30.4	30.4	84	26.2	3	6	90	0.00	30.270 
15:30	30.4	30.4	30.4	84	26.2	3	7	90	0.00	30.272 
15:35	30.4	30.4	30.4	85	26.4	2	7	112	0.00	30.272 
15:40	30.4	26.2	30.4	84	26.2	4	9	90	0.00	30.272 
15:45	30.4	30.4	30.4	84	26.2	2	6	112	0.00	30.281 
15:50	30.4	26.2	30.4	84	26.2	4	9	112	0.00	30.281 
15:55	30.4	30.4	30.4	84	26.2	3	7	90	0.00	30.281 
16:00	30.4	26.2	30.4	84	26.2	4	9	112	0.00	30.282 
16:05	30.3	26.1	30.3	84	26.1	4	7	90	0.00	30.282 
16:10	30.3	30.3	30.3	84	26.1	3	9	112	0.00	30.282 
16:15	30.3	30.3	30.3	85	26.3	3	7	90	0.00	30.282 
16:20	30.1	30.1	30.1	85	26.1	1	5	90	0.00	30.282 
16:25	30.1	30.1	30.1	86	26.4	1	4	90	0.00	30.282 
16:30	30.0	30.0	30.0	86	26.3	1	3	90	0.00	30.284 
16:35	29.8	29.8	29.8	87	26.4	2	7	90	0.00	30.284 
16:40	29.8	29.8	29.8	87	26.4	2	6	90	0.00	30.284 
16:45	29.5	29.5	29.5	88	26.4	3	6	90	0.00	30.286 
16:50	29.4	29.4	29.4	88	26.3	2	5	112	0.00	30.286 
16:55	29.3	29.3	29.3	89	26.5	3	7	112	0.00	30.286 
17:00	29.3	29.3	29.3	89	26.5	2	4	112	0.00	30.296 
17:05	29.1	29.1	29.1	90	26.5	2	6	112	0.00	30.296 
17:10	29.0	29.0	29.0	90	26.4	3	6	112	0.00	30.296 
17:15	28.8	28.8	28.8	90	26.2	1	5	90	0.00	30.297 
17:20	28.8	28.8	28.8	91	26.5	2	6	68	0.00	30.297 
17:25	28.8	28.8	28.8	91	26.5	3	9	90	0.00	30.297 
17:30	28.7	28.7	28.7	91	26.4	2	7	90	0.00	30.295 
17:35	28.7	28.7	28.7	91	26.4	1	4	90	0.00	30.295 
17:40	28.7	28.7	28.7	91	26.4	2	6	112	0.00	30.295 
17:45	28.7	28.7	28.7	91	26.4	1	4	112	0.00	30.299 
17:50	28.7	28.7	28.7	92	26.7	2	7	112	0.00	30.299 
17:55	28.5	28.5	28.5	92	26.5	3	8	112	0.00	30.299 
18:00	28.4	28.4	28.4	92	26.4	3	9	112	0.00	30.300 
18:05	28.4	28.4	28.4	91	26.1	2	7	90	0.00	30.300 
18:10	28.4	28.4	28.4	91	26.1	3	7	112	0.00	30.300 
18:15	28.4	28.4	28.4	92	26.4	2	6	90	0.00	30.300 
18:20	28.4	28.4	28.4	92	26.4	2	9	90	0.00	30.300 
18:25	28.4	28.4	28.4	92	26.4	2	6	112	0.00	30.300 
18:30	28.2	28.2	28.2	92	26.2	2	10	90	0.00	30.299 
18:35	28.4	28.4	28.4	92	26.4	2	6	90	0.00	30.299 
18:40	28.4	28.4	28.4	92	26.4	3	7	90	0.00	30.299 
18:45	28.4	28.4	28.4	92	26.4	2	7	135	0.00	30.301 
18:50	28.4	28.4	28.4	92	26.4	3	7	90	0.00	30.301 
18:55	28.4	28.4	28.4	92	26.4	3	6	90	0.00	30.301 
19:00	28.4	28.4	28.4	92	26.4	2	7	90	0.00	30.313 
19:05	28.4	28.4	28.4	92	26.4	3	7	90	0.00	30.313 
19:10	28.4	28.4	28.4	92	26.4	2	5	90	0.00	30.313 
19:15	28.4	28.4	28.4	92	26.4	3	7	90	0.00	30.313 
19:20	28.4	28.4	28.4	92	26.4	2	5	90	0.00	30.313 
19:25	28.4	28.4	28.4	92	26.4	2	5	112	0.00	30.313 
19:30	28.4	28.4	28.4	92	26.4	2	6	90	0.00	30.314 
19:35	28.4	28.4	28.4	92	26.4	2	5	90	0.00	30.314 
19:40	28.4	28.4	28.4	92	26.4	2	5	90	0.00	30.314 
19:45	28.4	28.4	28.4	92	26.4	3	6	112	0.00	30.314 
19:50	28.4	28.4	28.4	93	26.6	3	6	90	0.00	30.314 
19:55	28.4	28.4	28.4	93	26.6	2	5	90	0.00	30.314 
20:00	28.4	28.4	28.4	93	26.6	3	6	90	0.00	30.321 
20:05	28.4	28.4	28.4	93	26.6	3	6	90	0.00	30.321 
20:10	28.4	22.8	28.4	93	26.6	5	11	90	0.00	30.321 
20:15	28.4	23.9	28.4	92	26.4	4	9	90	0.00	30.316 
20:20	28.4	28.4	28.4	92	26.4	3	7	90	0.00	30.316 
20:25	28.4	28.4	28.4	92	26.4	2	6	90	0.00	30.316 
20:30	28.2	22.6	28.2	92	26.2	5	11	112	0.00	30.320 
20:35	28.2	23.7	28.2	92	26.2	4	9	90	0.00	30.320 
20:40	28.2	28.2	28.2	92	26.2	3	6	90	0.00	30.320 
20:45	28.2	28.2	28.2	92	26.2	3	9	112	0.00	30.319 
20:50	28.2	23.7	28.2	92	26.2	4	8	112	0.00	30.319 
20:55	28.1	22.5	28.1	92	26.1	5	15	90	0.00	30.319 
21:00	27.9	23.3	27.9	92	25.9	4	10	90	0.00	30.321 
21:05	27.9	23.3	27.9	91	25.6	4	9	90	0.00	30.321 
21:10	27.8	22.1	27.8	91	25.5	5	12	90	0.00	30.321 
21:15	27.8	23.2	27.8	91	25.5	4	11	90	0.00	30.324 
21:20	27.9	27.9	27.9	91	25.6	3	9	112	0.00	30.324 
21:25	27.9	27.9	27.9	91	25.6	3	7	90	0.00	30.324 
21:30	27.9	27.9	27.9	91	25.6	3	7	90	0.00	30.327 
21:35	27.9	27.9	27.9	91	25.6	3	9	112	0.00	30.327 
21:40	27.9	27.9	27.9	91	25.6	3	8	90	0.00	30.327 
21:45	27.9	23.3	27.9	91	25.6	4	10	90	0.00	30.328 
21:50	27.9	23.3	27.9	90	25.4	4	9	90	0.00	30.328 
21:55	28.1	23.6	28.1	90	25.6	4	7	112	0.00	30.328 
22:00	27.9	22.3	27.9	90	25.4	5	11	90	0.00	30.330 
22:05	28.1	28.1	28.1	90	25.6	3	10	90	0.00	30.330 
22:10	28.1	23.6	28.1	90	25.6	4	10	112	0.00	30.330 
22:15	28.1	23.6	28.1	90	25.6	4	7	112	0.00	30.331 
22:20	28.1	23.6	28.1	89	25.3	4	6	90	0.00	30.331 
22:25	28.1	22.5	28.1	89	25.3	5	11	112	0.00	30.331 
22:30	28.1	22.5	28.1	89	25.3	5	12	112	0.00	30.339 
22:35	28.1	23.6	28.1	89	25.3	4	10	112	0.00	30.339 
22:40	28.1	23.6	28.1	89	25.3	4	11	90	0.00	30.339 
22:45	28.1	22.5	28.1	88	25.0	5	12	90	0.00	30.332 
22:50	28.1	28.1	28.1	88	25.0	3	7	90	0.00	30.332 
22:55	28.1	23.6	28.1	88	25.0	4	9	90	0.00	30.332 
23:00	28.1	23.6	28.1	88	25.0	4	11	90	0.00	30.334 
23:05	28.1	22.5	28.1	88	25.0	5	13	90	0.00	30.334 
23:10	28.1	22.5	28.1	88	25.0	5	11	90	0.00	30.334 
23:15	27.9	23.3	27.9	88	24.8	4	10	90	0.00	30.332 
23:20	27.9	23.3	27.9	88	24.8	4	11	90	0.00	30.332 
23:25	27.9	23.3	27.9	88	24.8	4	10	90	0.00	30.332 
23:30	27.9	22.3	27.9	88	24.8	5	15	90	0.00	30.333 
23:35	27.9	22.3	27.9	88	24.8	5	10	90	0.00	30.333 
23:40	27.9	23.3	27.9	88	24.8	4	13	90	0.00	30.333 
23:45	27.9	22.3	27.9	88	24.8	5	13	90	0.00	30.331 
23:50	27.8	22.1	27.8	88	24.7	5	13	90	0.00	30.331 
23:55	27.8	22.1	27.8	88	24.7	5	11	112	0.00	30.331 

CoCoRaHS
IN-AL-39
A2 Web Hosting
Creative Commons License
GoDaddy
search engine by freefind advanced

loaded 2018-11-15 15:43:39 • last modified 2010-11-18 10:43:29
Privacy PolicyDisclaimer
• wx.awcolley.com is powered by PmWiki v.2002016 •
• all content (unless otherwise noted) © 2018 A W Colley